createdAt,value
2017-05-01T00:00:04.488Z,0
2017-05-01T00:01:14.750Z,0
2017-05-01T00:02:25.022Z,0
2017-05-01T00:03:34.970Z,0
2017-05-01T00:04:44.916Z,0
2017-05-01T00:05:55.171Z,0
2017-05-01T00:07:05.421Z,0
2017-05-01T00:08:15.048Z,0
2017-05-01T00:09:25.308Z,0
2017-05-01T00:10:35.563Z,0
2017-05-01T00:11:45.505Z,0
2017-05-01T00:12:55.440Z,0
2017-05-01T00:14:05.698Z,0
2017-05-01T00:15:15.009Z,0
2017-05-01T00:16:25.266Z,0
2017-05-01T00:17:34.901Z,0
2017-05-01T00:18:45.166Z,0
2017-05-01T00:19:55.110Z,0
2017-05-01T00:21:05.380Z,0
2017-05-01T00:22:15.011Z,0
2017-05-01T00:23:24.649Z,0
2017-05-01T00:24:34.283Z,0
2017-05-01T00:25:44.570Z,0
2017-05-01T00:26:54.200Z,0
2017-05-01T00:28:04.468Z,0
2017-05-01T00:29:14.414Z,0
2017-05-01T00:30:24.356Z,0
2017-05-01T00:31:34.297Z,0
2017-05-01T00:32:44.568Z,0
2017-05-01T00:33:54.832Z,0
2017-05-01T00:35:04.781Z,0
2017-05-01T00:36:14.718Z,0
2017-05-01T00:37:24.666Z,0
2017-05-01T00:38:34.625Z,0
2017-05-01T00:39:44.890Z,0
2017-05-01T00:40:54.836Z,0
2017-05-01T00:42:05.095Z,0
2017-05-01T00:43:15.043Z,0
2017-05-01T00:44:24.677Z,0
2017-05-01T00:45:34.944Z,0
2017-05-01T00:46:45.198Z,0
2017-05-01T00:47:55.454Z,0
2017-05-01T00:49:05.716Z,0
2017-05-01T00:50:15.659Z,0
2017-05-01T00:51:25.912Z,0
2017-05-01T00:52:36.168Z,0
2017-05-01T00:53:46.105Z,0
2017-05-01T00:54:56.052Z,0
2017-05-01T00:56:06.321Z,0
2017-05-01T00:57:16.262Z,0
2017-05-01T00:58:26.215Z,0
2017-05-01T00:59:36.166Z,0
2017-05-01T01:00:46.115Z,0
2017-05-01T01:01:56.059Z,0
2017-05-01T01:03:06.336Z,0
2017-05-01T01:04:16.611Z,0
2017-05-01T01:05:26.874Z,0
2017-05-01T01:06:36.818Z,0
2017-05-01T01:07:47.079Z,0
2017-05-01T01:08:57.345Z,0
2017-05-01T01:10:07.606Z,0
2017-05-01T01:11:17.866Z,0
2017-05-01T01:12:28.129Z,0
2017-05-01T01:13:38.398Z,0
2017-05-01T01:14:48.354Z,0
2017-05-01T01:15:58.302Z,0
2017-05-01T01:17:08.249Z,0
2017-05-01T01:18:18.195Z,0
2017-05-01T01:19:27.880Z,0
2017-05-01T01:20:38.189Z,0
2017-05-01T01:21:48.130Z,0
2017-05-01T01:22:58.391Z,0
2017-05-01T01:24:08.648Z,0
2017-05-01T01:25:18.271Z,0
2017-05-01T01:26:28.541Z,0
2017-05-01T01:27:38.487Z,0
2017-05-01T01:28:48.429Z,0
2017-05-01T01:29:58.388Z,0
2017-05-01T01:31:08.323Z,0
2017-05-01T01:32:18.269Z,0
2017-05-01T01:33:28.527Z,0
2017-05-01T01:34:38.467Z,0
2017-05-01T01:35:48.717Z,0
2017-05-01T01:36:58.662Z,0
2017-05-01T01:38:08.609Z,0
2017-05-01T01:39:18.553Z,0
2017-05-01T01:40:28.812Z,0
2017-05-01T01:41:39.072Z,0
2017-05-01T01:42:49.341Z,0
2017-05-01T01:43:59.295Z,0
2017-05-01T01:45:09.550Z,0
2017-05-01T01:46:19.495Z,0
2017-05-01T01:47:29.753Z,0
2017-05-01T01:48:40.016Z,0
2017-05-01T01:49:49.963Z,0
2017-05-01T01:50:59.908Z,0
2017-05-01T01:52:08.916Z,0
2017-05-01T01:53:18.860Z,0
2017-05-01T01:54:28.809Z,0
2017-05-01T01:55:38.751Z,0
2017-05-01T01:56:49.004Z,0
2017-05-01T01:57:58.962Z,0
2017-05-01T01:59:08.915Z,0
2017-05-01T02:00:18.862Z,0
2017-05-01T02:01:28.809Z,0
2017-05-01T02:02:38.751Z,0
2017-05-01T02:03:49.015Z,0
2017-05-01T02:04:59.268Z,0
2017-05-01T02:06:09.519Z,0
2017-05-01T02:07:19.800Z,0
2017-05-01T02:08:30.052Z,0
2017-05-01T02:09:40.309Z,0
2017-05-01T02:10:50.274Z,0
2017-05-01T02:12:00.756Z,0
2017-05-01T02:13:10.698Z,0
2017-05-01T02:14:20.342Z,0
2017-05-01T02:15:29.973Z,0
2017-05-01T02:16:39.919Z,0
2017-05-01T02:17:49.549Z,0
2017-05-01T02:18:59.818Z,0
2017-05-01T02:20:09.770Z,0
2017-05-01T02:21:19.717Z,0
2017-05-01T02:22:29.972Z,0
2017-05-01T02:23:40.243Z,0
2017-05-01T02:24:50.497Z,0
2017-05-01T02:26:00.124Z,0
2017-05-01T02:27:10.389Z,0
2017-05-01T02:28:20.336Z,0
2017-05-01T02:29:30.603Z,0
2017-05-01T02:30:40.880Z,0
2017-05-01T02:31:51.141Z,0
2017-05-01T02:33:01.402Z,0
2017-05-01T02:34:11.031Z,0
2017-05-01T02:35:20.355Z,0
2017-05-01T02:36:30.666Z,0
2017-05-01T02:37:40.926Z,0
2017-05-01T02:38:51.190Z,0
2017-05-01T02:40:01.176Z,0
2017-05-01T02:41:11.432Z,0
2017-05-01T02:42:21.687Z,0
2017-05-01T02:43:31.949Z,0
2017-05-01T02:44:42.199Z,0
2017-05-01T02:45:52.143Z,0
2017-05-01T02:47:02.401Z,0
2017-05-01T02:48:12.664Z,0
2017-05-01T02:49:22.295Z,0
2017-05-01T02:50:32.544Z,0
2017-05-01T02:51:42.173Z,0
2017-05-01T02:52:51.809Z,0
2017-05-01T02:54:02.074Z,0
2017-05-01T02:55:12.325Z,0
2017-05-01T02:56:21.957Z,0
2017-05-01T02:57:32.226Z,0
2017-05-01T02:58:42.501Z,0
2017-05-01T02:59:52.755Z,0
2017-05-01T03:01:02.387Z,0
2017-05-01T03:02:12.337Z,0
2017-05-01T03:03:22.596Z,0
2017-05-01T03:04:32.543Z,0
2017-05-01T03:05:42.487Z,0
2017-05-01T03:06:52.752Z,0
2017-05-01T03:08:02.696Z,0
2017-05-01T03:09:12.961Z,0
2017-05-01T03:10:23.216Z,0
2017-05-01T03:11:33.473Z,0
2017-05-01T03:12:43.436Z,0
2017-05-01T03:13:53.391Z,0
2017-05-01T03:15:03.024Z,0
2017-05-01T03:16:12.977Z,0
2017-05-01T03:17:22.602Z,0
2017-05-01T03:18:32.865Z,0
2017-05-01T03:19:43.130Z,0
2017-05-01T03:20:53.076Z,0
2017-05-01T03:22:03.334Z,0
2017-05-01T03:23:13.276Z,0
2017-05-01T03:24:23.542Z,0
2017-05-01T03:25:33.164Z,0
2017-05-01T03:26:43.104Z,0
2017-05-01T03:27:52.736Z,0
2017-05-01T03:29:02.678Z,0
2017-05-01T03:30:12.309Z,0
2017-05-01T03:31:22.247Z,0
2017-05-01T03:32:32.501Z,0
2017-05-01T03:33:42.448Z,0
2017-05-01T03:34:52.734Z,0
2017-05-01T03:36:02.998Z,0
2017-05-01T03:37:13.262Z,0
2017-05-01T03:38:23.522Z,0
2017-05-01T03:39:33.152Z,0
2017-05-01T03:40:43.405Z,0
2017-05-01T03:41:53.666Z,0
2017-05-01T03:43:03.923Z,0
2017-05-01T03:44:13.879Z,0
2017-05-01T03:45:23.829Z,0
2017-05-01T03:46:33.465Z,0
2017-05-01T03:47:43.415Z,0
2017-05-01T03:48:53.048Z,0
2017-05-01T03:50:03.316Z,0
2017-05-01T03:51:13.584Z,0
2017-05-01T03:52:23.839Z,0
2017-05-01T03:53:34.113Z,0
2017-05-01T03:54:43.739Z,0
2017-05-01T03:55:54.000Z,0
2017-05-01T03:57:04.291Z,4
2017-05-01T03:58:14.229Z,4
2017-05-01T03:59:24.187Z,4
2017-05-01T04:00:34.442Z,4
2017-05-01T04:01:44.707Z,0
2017-05-01T04:02:54.964Z,0
2017-05-01T04:04:04.917Z,0
2017-05-01T04:05:14.862Z,0
2017-05-01T04:06:25.132Z,0
2017-05-01T04:07:35.388Z,0
2017-05-01T04:08:45.336Z,0
2017-05-01T04:09:55.280Z,0
2017-05-01T04:11:05.552Z,0
2017-05-01T04:12:15.508Z,0
2017-05-01T04:13:25.463Z,0
2017-05-01T04:14:35.720Z,4
2017-05-01T04:15:45.357Z,4
2017-05-01T04:16:54.995Z,4
2017-05-01T04:18:04.934Z,4
2017-05-01T04:19:15.240Z,4
2017-05-01T04:20:25.497Z,4
2017-05-01T04:21:35.762Z,4
2017-05-01T04:22:45.387Z,0
2017-05-01T04:23:55.655Z,0
2017-05-01T04:25:05.602Z,0
2017-05-01T04:26:15.864Z,0
2017-05-01T04:27:25.811Z,0
2017-05-01T04:28:35.758Z,4
2017-05-01T04:29:45.706Z,4
2017-05-01T04:30:55.649Z,4
2017-05-01T04:32:05.590Z,4
2017-05-01T04:33:15.547Z,4
2017-05-01T04:34:25.491Z,4
2017-05-01T04:35:35.434Z,4
2017-05-01T04:36:45.695Z,4
2017-05-01T04:37:55.655Z,4
2017-05-01T04:39:05.915Z,0
2017-05-01T04:40:15.858Z,4
2017-05-01T04:41:25.490Z,4
2017-05-01T04:42:35.744Z,4
2017-05-01T04:43:45.692Z,4
2017-05-01T04:44:55.950Z,4
2017-05-01T04:46:06.214Z,4
2017-05-01T04:47:16.155Z,4
2017-05-01T04:48:26.415Z,4
2017-05-01T04:49:36.359Z,8
2017-05-01T04:50:46.307Z,4
2017-05-01T04:51:56.560Z,4
2017-05-01T04:53:06.815Z,4
2017-05-01T04:54:17.082Z,4
2017-05-01T04:55:27.353Z,8
2017-05-01T04:56:37.610Z,4
2017-05-01T04:57:47.245Z,8
2017-05-01T04:58:57.509Z,4
2017-05-01T05:00:07.454Z,8
2017-05-01T05:01:17.081Z,4
2017-05-01T05:02:27.031Z,4
2017-05-01T05:03:37.298Z,8
2017-05-01T05:04:47.556Z,8
2017-05-01T05:05:57.497Z,8
2017-05-01T05:07:07.764Z,8
2017-05-01T05:08:18.025Z,8
2017-05-01T05:09:27.971Z,4
2017-05-01T05:10:38.237Z,4
2017-05-01T05:11:48.501Z,8
2017-05-01T05:12:58.765Z,4
2017-05-01T05:14:08.715Z,8
2017-05-01T05:15:18.348Z,4
2017-05-01T05:16:28.607Z,4
2017-05-01T05:17:38.863Z,4
2017-05-01T05:18:49.121Z,4
2017-05-01T05:19:59.381Z,8
2017-05-01T05:21:09.652Z,4
2017-05-01T05:22:19.909Z,4
2017-05-01T05:23:30.170Z,8
2017-05-01T05:24:40.107Z,4
2017-05-01T05:25:50.364Z,8
2017-05-01T05:27:00.620Z,8
2017-05-01T05:28:10.568Z,8
2017-05-01T05:29:20.198Z,4
2017-05-01T05:30:30.142Z,8
2017-05-01T05:31:40.395Z,4
2017-05-01T05:32:50.663Z,8
2017-05-01T05:34:00.920Z,4
2017-05-01T05:35:11.210Z,4
2017-05-01T05:36:21.155Z,8
2017-05-01T05:37:31.409Z,8
2017-05-01T05:38:41.040Z,4
2017-05-01T05:39:51.303Z,8
2017-05-01T05:41:01.250Z,8
2017-05-01T05:42:11.506Z,4
2017-05-01T05:43:21.765Z,4
2017-05-01T05:44:31.709Z,4
2017-05-01T05:45:41.964Z,4
2017-05-01T05:46:51.285Z,4
2017-05-01T05:48:01.242Z,4
2017-05-01T05:49:11.509Z,4
2017-05-01T05:50:21.764Z,4
2017-05-01T05:51:31.388Z,4
2017-05-01T05:52:41.642Z,8
2017-05-01T05:53:51.279Z,4
2017-05-01T05:55:01.242Z,4
2017-05-01T05:56:11.506Z,4
2017-05-01T05:57:21.769Z,8
2017-05-01T05:58:32.034Z,4
2017-05-01T05:59:41.986Z,4
2017-05-01T06:00:51.926Z,8
2017-05-01T06:02:02.189Z,4
2017-05-01T06:03:12.489Z,4
2017-05-01T06:04:22.743Z,4
2017-05-01T06:05:32.999Z,4
2017-05-01T06:06:43.255Z,8
2017-05-01T06:07:52.888Z,8
2017-05-01T06:09:02.852Z,8
2017-05-01T06:10:12.167Z,8
2017-05-01T06:11:22.111Z,4
2017-05-01T06:12:32.065Z,8
2017-05-01T06:13:42.327Z,8
2017-05-01T06:14:52.269Z,8
2017-05-01T06:16:02.215Z,4
2017-05-01T06:17:12.161Z,4
2017-05-01T06:18:21.791Z,4
2017-05-01T06:19:31.740Z,8
2017-05-01T06:20:42.003Z,8
2017-05-01T06:21:51.943Z,8
2017-05-01T06:23:01.883Z,8
2017-05-01T06:24:12.149Z,8
2017-05-01T06:25:22.406Z,8
2017-05-01T06:26:32.672Z,12
2017-05-01T06:27:42.930Z,12
2017-05-01T06:28:52.874Z,8
2017-05-01T06:30:02.816Z,8
2017-05-01T06:31:12.757Z,4
2017-05-01T06:32:22.706Z,4
2017-05-01T06:33:32.969Z,8
2017-05-01T06:34:42.915Z,8
2017-05-01T06:35:52.858Z,8
2017-05-01T06:37:03.114Z,8
2017-05-01T06:38:12.748Z,4
2017-05-01T06:39:22.685Z,8
2017-05-01T06:40:32.320Z,8
2017-05-01T06:41:42.580Z,8
2017-05-01T06:42:52.524Z,8
2017-05-01T06:44:02.782Z,8
2017-05-01T06:45:12.413Z,8
2017-05-01T06:46:22.041Z,8
2017-05-01T06:47:31.984Z,8
2017-05-01T06:48:41.939Z,12
2017-05-01T06:49:52.196Z,8
2017-05-01T06:51:02.454Z,12
2017-05-01T06:52:12.409Z,12
2017-05-01T06:53:22.668Z,8
2017-05-01T06:54:32.938Z,12
2017-05-01T06:55:43.206Z,12
2017-05-01T06:56:53.478Z,12
2017-05-01T06:58:03.735Z,24
2017-05-01T06:59:13.362Z,16
2017-05-01T07:00:23.620Z,16
2017-05-01T07:01:33.565Z,12
2017-05-01T07:02:43.517Z,36
2017-05-01T07:03:53.463Z,12
2017-05-01T07:05:03.720Z,16
2017-05-01T07:06:13.667Z,16
2017-05-01T07:07:23.931Z,16
2017-05-01T07:08:34.203Z,32
2017-05-01T07:09:44.464Z,16
2017-05-01T07:10:54.409Z,16
2017-05-01T07:12:04.670Z,16
2017-05-01T07:13:14.926Z,20
2017-05-01T07:14:24.867Z,20
2017-05-01T07:15:35.133Z,84
2017-05-01T07:16:45.390Z,36
2017-05-01T07:17:55.026Z,20
2017-05-01T07:19:05.292Z,16
2017-05-01T07:20:15.242Z,16
2017-05-01T07:21:25.500Z,16
2017-05-01T07:22:35.754Z,24
2017-05-01T07:23:46.011Z,24
2017-05-01T07:24:55.963Z,32
2017-05-01T07:26:06.222Z,16
2017-05-01T07:27:16.480Z,16
2017-05-01T07:28:26.739Z,16
2017-05-01T07:29:36.992Z,16
2017-05-01T07:30:46.929Z,16
2017-05-01T07:31:56.879Z,12
2017-05-01T07:33:06.828Z,16
2017-05-01T07:34:17.083Z,20
2017-05-01T07:35:27.044Z,20
2017-05-01T07:36:37.303Z,28
2017-05-01T07:37:46.937Z,28
2017-05-01T07:38:56.569Z,16
2017-05-01T07:40:06.198Z,16
2017-05-01T07:41:16.149Z,16
2017-05-01T07:42:25.783Z,12
2017-05-01T07:43:36.068Z,12
2017-05-01T07:44:46.018Z,12
2017-05-01T07:45:56.277Z,12
2017-05-01T07:47:06.541Z,16
2017-05-01T07:48:16.797Z,12
2017-05-01T07:49:27.070Z,16
2017-05-01T07:50:36.694Z,20
2017-05-01T07:51:46.948Z,32
2017-05-01T07:52:57.218Z,36
2017-05-01T07:54:07.481Z,88
2017-05-01T07:55:17.750Z,56
2017-05-01T07:56:27.698Z,84
2017-05-01T07:57:37.963Z,64
2017-05-01T07:58:47.906Z,40
2017-05-01T07:59:58.168Z,28
2017-05-01T08:01:08.434Z,76
2017-05-01T08:02:18.070Z,76
2017-05-01T08:03:28.326Z,32
2017-05-01T08:04:38.274Z,32
2017-05-01T08:05:48.534Z,40
2017-05-01T08:06:58.160Z,64
2017-05-01T08:08:07.791Z,36
2017-05-01T08:09:17.434Z,76
2017-05-01T08:10:27.707Z,60
2017-05-01T08:11:37.652Z,72
2017-05-01T08:12:47.820Z,68
2017-05-01T08:13:58.086Z,60
2017-05-01T08:15:07.414Z,64
2017-05-01T08:16:17.363Z,64
2017-05-01T08:17:27.645Z,28
2017-05-01T08:18:37.914Z,64
2017-05-01T08:19:48.172Z,52
2017-05-01T08:20:57.810Z,64
2017-05-01T08:22:07.760Z,28
2017-05-01T08:23:17.410Z,40
2017-05-01T08:24:27.365Z,60
2017-05-01T08:25:37.622Z,64
2017-05-01T08:26:47.255Z,60
2017-05-01T08:27:57.515Z,40
2017-05-01T08:29:07.163Z,60
2017-05-01T08:30:17.112Z,32
2017-05-01T08:31:27.064Z,28
2017-05-01T08:32:37.327Z,52
2017-05-01T08:33:47.590Z,28
2017-05-01T08:34:57.853Z,32
2017-05-01T08:36:07.798Z,32
2017-05-01T08:37:17.743Z,28
2017-05-01T08:38:28.004Z,28
2017-05-01T08:39:38.281Z,28
2017-05-01T08:40:48.549Z,48
2017-05-01T08:41:58.176Z,60
2017-05-01T08:43:08.156Z,32
2017-05-01T08:44:18.106Z,32
2017-05-01T08:45:28.092Z,28
2017-05-01T08:46:38.347Z,36
2017-05-01T08:47:48.331Z,48
2017-05-01T08:48:57.971Z,24
2017-05-01T08:50:07.919Z,48
2017-05-01T08:51:17.870Z,36
2017-05-01T08:52:27.505Z,44
2017-05-01T08:53:37.804Z,44
2017-05-01T08:54:48.069Z,40
2017-05-01T08:55:58.323Z,32
2017-05-01T08:57:07.951Z,36
2017-05-01T08:58:18.213Z,36
2017-05-01T08:59:28.170Z,32
2017-05-01T09:00:38.117Z,32
2017-05-01T09:01:48.369Z,28
2017-05-01T09:02:58.626Z,36
2017-05-01T09:04:08.893Z,32
2017-05-01T09:05:18.542Z,32
2017-05-01T09:06:28.803Z,28
2017-05-01T09:07:39.068Z,32
2017-05-01T09:08:49.331Z,24
2017-05-01T09:09:59.288Z,24
2017-05-01T09:11:09.231Z,28
2017-05-01T09:12:19.189Z,28
2017-05-01T09:13:29.154Z,28
2017-05-01T09:14:38.815Z,24
2017-05-01T09:15:49.067Z,24
2017-05-01T09:16:58.690Z,24
2017-05-01T09:18:08.331Z,24
2017-05-01T09:19:17.970Z,20
2017-05-01T09:20:28.230Z,24
2017-05-01T09:21:38.171Z,20
2017-05-01T09:22:48.424Z,20
2017-05-01T09:23:58.683Z,24
2017-05-01T09:25:08.638Z,24
2017-05-01T09:26:18.885Z,20
2017-05-01T09:27:29.144Z,24
2017-05-01T09:28:39.089Z,20
2017-05-01T09:29:49.028Z,16
2017-05-01T09:30:59.303Z,24
2017-05-01T09:32:09.570Z,24
2017-05-01T09:33:19.827Z,28
2017-05-01T09:34:29.772Z,20
2017-05-01T09:35:39.718Z,20
2017-05-01T09:36:49.354Z,24
2017-05-01T09:37:59.653Z,20
2017-05-01T09:39:09.925Z,24
2017-05-01T09:40:19.557Z,24
2017-05-01T09:41:29.818Z,24
2017-05-01T09:42:39.444Z,20
2017-05-01T09:43:49.719Z,24
2017-05-01T09:44:59.988Z,20
2017-05-01T09:46:09.972Z,20
2017-05-01T09:47:19.912Z,20
2017-05-01T09:48:30.202Z,20
2017-05-01T09:49:40.151Z,20
2017-05-01T09:50:49.784Z,20
2017-05-01T09:51:59.420Z,20
2017-05-01T09:53:09.374Z,20
2017-05-01T09:54:19.344Z,20
2017-05-01T09:55:28.977Z,20
2017-05-01T09:56:38.922Z,20
2017-05-01T09:57:48.867Z,20
2017-05-01T09:58:58.497Z,20
2017-05-01T10:00:08.758Z,20
2017-05-01T10:01:19.024Z,20
2017-05-01T10:02:28.657Z,16
2017-05-01T10:03:38.610Z,16
2017-05-01T10:04:48.864Z,16
2017-05-01T10:05:58.802Z,16
2017-05-01T10:07:08.443Z,20
2017-05-01T10:08:18.400Z,20
2017-05-01T10:09:28.356Z,12
2017-05-01T10:10:38.679Z,12
2017-05-01T10:11:48.799Z,20
2017-05-01T10:12:59.283Z,20
2017-05-01T10:14:09.359Z,20
2017-05-01T10:15:19.313Z,20
2017-05-01T10:16:29.251Z,16
2017-05-01T10:17:39.508Z,20
2017-05-01T10:18:49.771Z,12
2017-05-01T10:20:00.028Z,20
2017-05-01T10:21:09.987Z,12
2017-05-01T10:22:20.241Z,16
2017-05-01T10:23:30.191Z,8
2017-05-01T10:24:40.210Z,16
2017-05-01T10:25:49.836Z,20
2017-05-01T10:26:59.781Z,16
2017-05-01T10:28:09.723Z,16
2017-05-01T10:29:19.676Z,16
2017-05-01T10:30:29.348Z,8
2017-05-01T10:31:38.978Z,16
2017-05-01T10:32:48.930Z,16
2017-05-01T10:33:58.876Z,16
2017-05-01T10:35:08.821Z,16
2017-05-01T10:36:18.446Z,20
2017-05-01T10:37:28.718Z,16
2017-05-01T10:38:38.661Z,16
2017-05-01T10:39:48.295Z,8
2017-05-01T10:40:57.939Z,16
2017-05-01T10:42:08.197Z,16
2017-05-01T10:43:17.828Z,16
2017-05-01T10:44:27.889Z,16
2017-05-01T10:45:38.242Z,12
2017-05-01T10:46:48.504Z,16
2017-05-01T10:47:58.463Z,16
2017-05-01T10:49:08.406Z,16
2017-05-01T10:50:17.716Z,16
2017-05-01T10:51:27.355Z,12
2017-05-01T10:52:37.306Z,8
2017-05-01T10:53:47.255Z,12
2017-05-01T10:54:57.509Z,20
2017-05-01T10:56:07.777Z,16
2017-05-01T10:57:18.093Z,12
2017-05-01T10:58:28.145Z,12
2017-05-01T10:59:38.112Z,12
2017-05-01T11:00:48.057Z,12
2017-05-01T11:01:58.312Z,16
2017-05-01T11:03:07.938Z,20
2017-05-01T11:04:17.888Z,12
2017-05-01T11:05:28.147Z,12
2017-05-01T11:06:38.401Z,12
2017-05-01T11:07:48.669Z,12
2017-05-01T11:08:57.988Z,12
2017-05-01T11:10:07.944Z,12
2017-05-01T11:11:18.231Z,20
2017-05-01T11:12:28.494Z,16
2017-05-01T11:13:38.757Z,16
2017-05-01T11:14:48.713Z,16
2017-05-01T11:15:58.663Z,12
2017-05-01T11:17:08.918Z,12
2017-05-01T11:18:18.861Z,12
2017-05-01T11:19:28.484Z,12
2017-05-01T11:20:38.745Z,12
2017-05-01T11:21:49.007Z,12
2017-05-01T11:22:58.644Z,12
2017-05-01T11:24:08.895Z,12
2017-05-01T11:25:18.213Z,12
2017-05-01T11:26:28.175Z,12
2017-05-01T11:27:38.446Z,12
2017-05-01T11:28:48.390Z,12
2017-05-01T11:29:57.702Z,12
2017-05-01T11:31:07.644Z,20
2017-05-01T11:32:17.905Z,20
2017-05-01T11:33:28.161Z,16
2017-05-01T11:34:38.103Z,16
2017-05-01T11:35:48.356Z,12
2017-05-01T11:36:57.982Z,16
2017-05-01T11:38:07.622Z,16
2017-05-01T11:39:17.258Z,16
2017-05-01T11:40:27.520Z,16
2017-05-01T11:41:37.455Z,16
2017-05-01T11:42:47.404Z,16
2017-05-01T11:43:57.669Z,12
2017-05-01T11:45:07.611Z,16
2017-05-01T11:46:17.245Z,8
2017-05-01T11:47:27.077Z,4
2017-05-01T11:48:37.522Z,8
2017-05-01T11:49:47.731Z,4
2017-05-01T11:50:57.723Z,8
2017-05-01T11:52:07.667Z,8
2017-05-01T11:53:17.611Z,12
2017-05-01T11:54:27.558Z,16
2017-05-01T11:55:37.499Z,16
2017-05-01T11:56:47.442Z,12
2017-05-01T11:57:57.392Z,12
2017-05-01T11:59:07.661Z,12
2017-05-01T12:00:17.948Z,8
2017-05-01T12:01:28.206Z,8
2017-05-01T12:02:38.462Z,12
2017-05-01T12:03:47.781Z,12
2017-05-01T12:04:57.738Z,12
2017-05-01T12:06:08.032Z,12
2017-05-01T12:07:17.987Z,12
2017-05-01T12:08:28.249Z,16
2017-05-01T12:09:38.191Z,12
2017-05-01T12:10:48.452Z,12
2017-05-01T12:11:58.401Z,8
2017-05-01T12:13:08.352Z,12
2017-05-01T12:14:18.645Z,12
2017-05-01T12:15:28.903Z,12
2017-05-01T12:16:39.161Z,12
2017-05-01T12:17:49.108Z,12
2017-05-01T12:18:59.364Z,8
2017-05-01T12:20:08.998Z,12
2017-05-01T12:21:18.945Z,12
2017-05-01T12:22:29.214Z,12
2017-05-01T12:23:39.472Z,12
2017-05-01T12:24:49.727Z,8
2017-05-01T12:25:59.671Z,12
2017-05-01T12:27:09.615Z,8
2017-05-01T12:28:19.874Z,12
2017-05-01T12:29:29.847Z,12
2017-05-01T12:30:39.797Z,16
2017-05-01T12:31:49.744Z,12
2017-05-01T12:32:59.694Z,12
2017-05-01T12:34:09.958Z,8
2017-05-01T12:35:19.285Z,12
2017-05-01T12:36:29.234Z,12
2017-05-01T12:37:39.495Z,12
2017-05-01T12:38:49.753Z,12
2017-05-01T12:40:00.035Z,12
2017-05-01T12:41:09.663Z,12
2017-05-01T12:42:19.926Z,12
2017-05-01T12:43:30.182Z,12
2017-05-01T12:44:39.813Z,12
2017-05-01T12:45:50.073Z,8
2017-05-01T12:47:00.333Z,8
2017-05-01T12:48:10.586Z,12
2017-05-01T12:49:20.532Z,8
2017-05-01T12:50:30.796Z,12
2017-05-01T12:51:40.426Z,8
2017-05-01T12:52:50.693Z,8
2017-05-01T12:54:00.963Z,8
2017-05-01T12:55:10.276Z,12
2017-05-01T12:56:20.213Z,8
2017-05-01T12:57:30.474Z,12
2017-05-01T12:58:40.417Z,12
2017-05-01T12:59:50.366Z,12
2017-05-01T13:01:00.628Z,8
2017-05-01T13:02:10.254Z,12
2017-05-01T13:03:19.887Z,8
2017-05-01T13:04:30.172Z,12
2017-05-01T13:05:40.434Z,12
2017-05-01T13:06:50.063Z,12
2017-05-01T13:08:00.325Z,12
2017-05-01T13:09:10.588Z,8
2017-05-01T13:10:20.537Z,12
2017-05-01T13:11:30.791Z,8
2017-05-01T13:12:40.777Z,8
2017-05-01T13:13:51.045Z,8
2017-05-01T13:15:00.991Z,12
2017-05-01T13:16:11.247Z,8
2017-05-01T13:17:20.869Z,12
2017-05-01T13:18:30.506Z,8
2017-05-01T13:19:40.450Z,8
2017-05-01T13:20:50.717Z,12
2017-05-01T13:22:00.358Z,12
2017-05-01T13:23:09.987Z,12
2017-05-01T13:24:19.619Z,12
2017-05-01T13:25:29.566Z,8
2017-05-01T13:26:39.510Z,12
2017-05-01T13:27:49.779Z,12
2017-05-01T13:28:59.722Z,12
2017-05-01T13:30:09.983Z,12
2017-05-01T13:31:19.623Z,12
2017-05-01T13:32:29.880Z,8
2017-05-01T13:33:40.142Z,12
2017-05-01T13:34:50.406Z,12
2017-05-01T13:36:00.706Z,8
2017-05-01T13:37:10.647Z,8
2017-05-01T13:38:20.328Z,8
2017-05-01T13:39:30.591Z,8
2017-05-01T13:40:40.534Z,4
2017-05-01T13:41:50.802Z,4
2017-05-01T13:43:00.433Z,4
2017-05-01T13:44:10.390Z,4
2017-05-01T13:45:20.341Z,4
2017-05-01T13:46:29.978Z,4
2017-05-01T13:47:40.238Z,4
2017-05-01T13:48:50.499Z,8
2017-05-01T13:50:00.451Z,8
2017-05-01T13:51:10.398Z,4
2017-05-01T13:52:20.668Z,8
2017-05-01T13:53:30.934Z,8
2017-05-01T13:54:41.193Z,8
2017-05-01T13:55:51.481Z,4
2017-05-01T13:57:01.741Z,4
2017-05-01T13:58:11.698Z,8
2017-05-01T13:59:21.648Z,8
2017-05-01T14:00:31.852Z,8
2017-05-01T14:01:42.111Z,8
2017-05-01T14:02:52.379Z,8
2017-05-01T14:04:02.334Z,4
2017-05-01T14:05:12.285Z,8
2017-05-01T14:06:22.228Z,8
2017-05-01T14:07:32.486Z,8
2017-05-01T14:08:42.750Z,8
2017-05-01T14:09:53.023Z,4
2017-05-01T14:11:03.322Z,8
2017-05-01T14:12:13.272Z,8
2017-05-01T14:13:23.527Z,8
2017-05-01T14:14:33.476Z,4
2017-05-01T14:15:43.739Z,4
2017-05-01T14:16:53.699Z,8
2017-05-01T14:18:03.644Z,8
2017-05-01T14:19:13.914Z,8
2017-05-01T14:20:23.556Z,8
2017-05-01T14:21:33.186Z,4
2017-05-01T14:22:43.495Z,8
2017-05-01T14:23:53.433Z,8
2017-05-01T14:25:03.700Z,12
2017-05-01T14:26:13.649Z,8
2017-05-01T14:27:23.922Z,8
2017-05-01T14:28:33.583Z,8
2017-05-01T14:29:43.842Z,8
2017-05-01T14:30:53.792Z,8
2017-05-01T14:32:04.059Z,8
2017-05-01T14:33:13.717Z,8
2017-05-01T14:34:23.680Z,8
2017-05-01T14:35:33.949Z,8
2017-05-01T14:36:43.897Z,8
2017-05-01T14:37:54.156Z,8
2017-05-01T14:39:03.493Z,8
2017-05-01T14:40:13.751Z,8
2017-05-01T14:41:23.429Z,8
2017-05-01T14:42:33.368Z,8
2017-05-01T14:43:43.315Z,8
2017-05-01T14:44:53.258Z,8
2017-05-01T14:46:03.525Z,8
2017-05-01T14:47:13.807Z,8
2017-05-01T14:48:23.768Z,4
2017-05-01T14:49:33.407Z,4
2017-05-01T14:50:43.355Z,8
2017-05-01T14:51:53.302Z,8
2017-05-01T14:53:03.565Z,8
2017-05-01T14:54:13.824Z,4
2017-05-01T14:55:23.454Z,8
2017-05-01T14:56:33.711Z,8
2017-05-01T14:57:43.975Z,4
2017-05-01T14:58:53.923Z,4
2017-05-01T15:00:04.174Z,4
2017-05-01T15:01:14.119Z,4
2017-05-01T15:02:24.376Z,8
2017-05-01T15:03:34.009Z,8
2017-05-01T15:04:44.267Z,8
2017-05-01T15:05:54.521Z,8
2017-05-01T15:07:03.835Z,8
2017-05-01T15:08:13.792Z,8
2017-05-01T15:09:24.074Z,8
2017-05-01T15:10:34.017Z,8
2017-05-01T15:11:43.958Z,8
2017-05-01T15:12:54.225Z,8
2017-05-01T15:14:04.487Z,8
2017-05-01T15:15:14.746Z,8
2017-05-01T15:16:24.382Z,8
2017-05-01T15:17:34.644Z,8
2017-05-01T15:18:44.597Z,8
2017-05-01T15:19:54.878Z,8
2017-05-01T15:21:04.868Z,4
2017-05-01T15:22:15.123Z,4
2017-05-01T15:23:24.537Z,8
2017-05-01T15:24:34.806Z,4
2017-05-01T15:25:44.749Z,8
2017-05-01T15:26:54.694Z,4
2017-05-01T15:28:04.967Z,4
2017-05-01T15:29:15.227Z,4
2017-05-01T15:30:25.494Z,4
2017-05-01T15:31:35.445Z,8
2017-05-01T15:32:45.406Z,4
2017-05-01T15:33:55.358Z,8
2017-05-01T15:35:04.999Z,8
2017-05-01T15:36:14.939Z,4
2017-05-01T15:37:25.237Z,8
2017-05-01T15:38:35.191Z,8
2017-05-01T15:39:44.817Z,8
2017-05-01T15:40:54.758Z,8
2017-05-01T15:42:04.080Z,8
2017-05-01T15:43:14.030Z,8
2017-05-01T15:44:24.293Z,8
2017-05-01T15:45:34.559Z,8
2017-05-01T15:46:44.820Z,8
2017-05-01T15:47:54.787Z,8
2017-05-01T15:49:05.071Z,8
2017-05-01T15:50:14.696Z,4
2017-05-01T15:51:24.636Z,8
2017-05-01T15:52:34.585Z,8
2017-05-01T15:53:44.527Z,4
2017-05-01T15:54:54.783Z,8
2017-05-01T15:56:04.416Z,4
2017-05-01T15:57:14.042Z,24
2017-05-01T15:58:24.305Z,20
2017-05-01T15:59:33.939Z,20
2017-05-01T16:00:43.884Z,20
2017-05-01T16:01:53.517Z,20
2017-05-01T16:03:03.151Z,20
2017-05-01T16:04:13.128Z,24
2017-05-01T16:05:22.773Z,24
2017-05-01T16:06:32.730Z,24
2017-05-01T16:07:42.689Z,24
2017-05-01T16:08:52.626Z,20
2017-05-01T16:10:02.889Z,20
2017-05-01T16:11:12.521Z,20
2017-05-01T16:12:22.787Z,20
2017-05-01T16:13:33.051Z,20
2017-05-01T16:14:43.306Z,20
2017-05-01T16:15:53.259Z,20
2017-05-01T16:17:03.523Z,20
2017-05-01T16:18:13.477Z,20
2017-05-01T16:19:23.750Z,20
2017-05-01T16:20:34.028Z,20
2017-05-01T16:21:43.987Z,20
2017-05-01T16:22:54.255Z,20
2017-05-01T16:24:04.206Z,20
2017-05-01T16:25:14.465Z,20
2017-05-01T16:26:24.407Z,4
2017-05-01T16:27:34.680Z,4
2017-05-01T16:28:44.628Z,4
2017-05-01T16:29:54.898Z,4
2017-05-01T16:31:04.848Z,4
2017-05-01T16:32:15.105Z,4
2017-05-01T16:33:25.371Z,4
2017-05-01T16:34:35.635Z,4
2017-05-01T16:35:45.892Z,4
2017-05-01T16:36:55.837Z,4
2017-05-01T16:38:05.785Z,4
2017-05-01T16:39:15.428Z,4
2017-05-01T16:40:25.388Z,4
2017-05-01T16:41:35.018Z,4
2017-05-01T16:42:44.967Z,0
2017-05-01T16:43:55.239Z,4
2017-05-01T16:45:05.186Z,4
2017-05-01T16:46:15.451Z,4
2017-05-01T16:47:25.711Z,4
2017-05-01T16:48:35.348Z,4
2017-05-01T16:49:45.296Z,4
2017-05-01T16:50:55.571Z,0
2017-05-01T16:52:05.832Z,0
2017-05-01T16:53:15.785Z,0
2017-05-01T16:54:25.425Z,0
2017-05-01T16:55:35.367Z,4
2017-05-01T16:56:45.315Z,0
2017-05-01T16:57:54.953Z,4
2017-05-01T16:59:04.601Z,4
2017-05-01T17:00:14.549Z,4